PWSweather.com
Personal Weather Stations
Station Observations
CW4114
Near Downtown, Rogers City, MI 49779

Near DowntownRogers City, MI 49779

Lat: 45.417443, Lon: -83.810642

Elevation: 605

Station Type: Davis Vantage Pro2 w/Solar

Latest ConditionsUpdated 8:51:58 AM EDT Monday, Mar 30, 2015
Currently Today's Max Today's Min Today's Average
Temperature 34.9°F1.6°C 35.2°F1.8°C 34.5°F1.4°C 35.0°F1.7°C
Dew Point 32.5°F0.3°C 33.4°F0.8°C 31.3°F-0.4°C 32.4°F0.2°C
Winds 6.0 mph W9.7 kmh W 10.1 mph W16.3 kmh W - 6.9 mph 11.1 kmh
Wind Gusts 14.1 mph22.7 kmh 21.0 mph33.8 kmh - -
Humidity 91% 94% 87% 90%
Pressure 29.75 in1007.5 mb 29.75 in1007.5 mb 29.54 in1000.3 mb -
Hour Temp Dew Point Humidity Winds Wind Gusts Pressure Precip Precip Rate Daily Precip Total
08:51 AM 34.9°F1.6°C 32.5°F0.3°C 91% 6.0 mph W9.7 kmh W 14.1 mph22.7 kmh 29.75 in1007.5 mb 0.00 in0.0 mm 0.00 in0.0 mm 0.00 in0.0 mm
08:46 AM 34.9°F1.6°C 32.5°F0.3°C 91% 6.0 mph WNW9.7 kmh WNW 11.0 mph17.7 kmh 29.74 in1007.1 mb 0.00 in0.0 mm 0.00 in0.0 mm 0.00 in0.0 mm
08:41 AM 34.9°F1.6°C 32.2°F0.1°C 90% 6.0 mph WSW9.7 kmh WSW 11.0 mph17.7 kmh 29.74 in1007.1 mb 0.00 in0.0 mm 0.00 in0.0 mm 0.00 in0.0 mm
08:36 AM 34.9°F1.6°C 32.2°F0.1°C 90% 6.0 mph WSW9.7 kmh WSW 11.0 mph17.7 kmh 29.74 in1007.1 mb 0.00 in0.0 mm 0.00 in0.0 mm 0.00 in0.0 mm
08:31 AM 34.9°F1.6°C 32.2°F0.1°C 90% 8.1 mph NW13.0 kmh NW 13.0 mph20.9 kmh 29.73 in1006.8 mb 0.00 in0.0 mm 0.00 in0.0 mm 0.00 in0.0 mm
08:26 AM 34.9°F1.6°C 32.2°F0.1°C 90% 6.9 mph WSW11.1 kmh WSW 18.0 mph29.0 kmh 29.73 in1006.8 mb 0.00 in0.0 mm 0.00 in0.0 mm 0.00 in0.0 mm
08:21 AM 34.9°F1.6°C 32.2°F0.1°C 90% 6.0 mph WSW9.7 kmh WSW 18.0 mph29.0 kmh 29.74 in1007.1 mb 0.00 in0.0 mm 0.00 in0.0 mm 0.00 in0.0 mm
08:16 AM 34.7°F1.5°C 32.0°F0.0°C 90% 4.9 mph W7.9 kmh W 8.9 mph14.3 kmh 29.73 in1006.8 mb 0.00 in0.0 mm 0.00 in0.0 mm 0.00 in0.0 mm
08:11 AM 34.7°F1.5°C 32.0°F0.0°C 90% 4.9 mph NW7.9 kmh NW 12.1 mph19.5 kmh 29.73 in1006.8 mb 0.00 in0.0 mm 0.00 in0.0 mm 0.00 in0.0 mm
08:06 AM 34.7°F1.5°C 32.0°F0.0°C 90% 4.9 mph SW7.9 kmh SW 14.1 mph22.7 kmh 29.73 in1006.8 mb 0.00 in0.0 mm 0.00 in0.0 mm 0.00 in0.0 mm
08:01 AM 34.7°F1.5°C 31.8°F-0.1°C 89% 4.9 mph WSW7.9 kmh WSW 10.1 mph16.3 kmh 29.73 in1006.8 mb 0.00 in0.0 mm 0.00 in0.0 mm 0.00 in0.0 mm
07:56 AM 34.9°F1.6°C 32.0°F0.0°C 89% 6.0 mph NW9.7 kmh NW 12.1 mph19.5 kmh 29.73 in1006.8 mb 0.00 in0.0 mm 0.00 in0.0 mm 0.00 in0.0 mm
07:51 AM 34.9°F1.6°C 31.6°F-0.2°C 88% 6.0 mph W9.7 kmh W 12.1 mph19.5 kmh 29.73 in1006.8 mb 0.00 in0.0 mm 0.00 in0.0 mm 0.00 in0.0 mm
07:46 AM 34.9°F1.6°C 31.6°F-0.2°C 88% 6.0 mph WNW9.7 kmh WNW 14.1 mph22.7 kmh 29.72 in1006.4 mb 0.00 in0.0 mm 0.00 in0.0 mm 0.00 in0.0 mm
07:41 AM 34.9°F1.6°C 31.6°F-0.2°C 88% 6.9 mph NW11.1 kmh NW 12.1 mph19.5 kmh 29.73 in1006.8 mb 0.00 in0.0 mm 0.00 in0.0 mm 0.00 in0.0 mm
07:36 AM 34.9°F1.6°C 31.5°F-0.3°C 87% 8.1 mph WSW13.0 kmh WSW 16.1 mph25.9 kmh 29.73 in1006.8 mb 0.00 in0.0 mm 0.00 in0.0 mm 0.00 in0.0 mm
07:31 AM 34.9°F1.6°C 31.6°F-0.2°C 88% 8.1 mph W13.0 kmh W 15.0 mph24.1 kmh 29.72 in1006.4 mb 0.00 in0.0 mm 0.00 in0.0 mm 0.00 in0.0 mm
07:26 AM 34.9°F1.6°C 31.5°F-0.3°C 87% 6.0 mph WNW9.7 kmh WNW 15.0 mph24.1 kmh 29.73 in1006.8 mb 0.00 in0.0 mm 0.00 in0.0 mm 0.00 in0.0 mm
07:21 AM 34.9°F1.6°C 31.5°F-0.3°C 87% 6.0 mph W9.7 kmh W 13.0 mph20.9 kmh 29.72 in1006.4 mb 0.00 in0.0 mm 0.00 in0.0 mm 0.00 in0.0 mm
07:16 AM 34.9°F1.6°C 31.5°F-0.3°C 87% 4.9 mph NW7.9 kmh NW 11.0 mph17.7 kmh 29.72 in1006.4 mb 0.00 in0.0 mm 0.00 in0.0 mm 0.00 in0.0 mm
07:11 AM 34.9°F1.6°C 31.5°F-0.3°C 87% 6.0 mph SW9.7 kmh SW 10.1 mph16.3 kmh 29.72 in1006.4 mb 0.00 in0.0 mm 0.00 in0.0 mm 0.00 in0.0 mm
07:06 AM 34.9°F1.6°C 31.6°F-0.2°C 88% 6.0 mph WSW9.7 kmh WSW 15.0 mph24.1 kmh 29.72 in1006.4 mb 0.00 in0.0 mm 0.00 in0.0 mm 0.00 in0.0 mm
07:01 AM 34.7°F1.5°C 31.5°F-0.3°C 88% 4.9 mph WNW7.9 kmh WNW 12.1 mph19.5 kmh 29.72 in1006.4 mb 0.00 in0.0 mm 0.00 in0.0 mm 0.00 in0.0 mm
06:56 AM 34.7°F1.5°C 31.5°F-0.3°C 88% 6.0 mph NW9.7 kmh NW 15.0 mph24.1 kmh 29.72 in1006.4 mb 0.00 in0.0 mm 0.00 in0.0 mm 0.00 in0.0 mm
06:51 AM 34.7°F1.5°C 31.5°F-0.3°C 88% 6.9 mph W11.1 kmh W 12.1 mph19.5 kmh 29.71 in1006.1 mb 0.00 in0.0 mm 0.00 in0.0 mm 0.00 in0.0 mm
06:46 AM 34.5°F1.4°C 31.3°F-0.4°C 88% 6.9 mph NW11.1 kmh NW 17.9 mph28.8 kmh 29.71 in1006.1 mb 0.00 in0.0 mm 0.00 in0.0 mm 0.00 in0.0 mm
06:41 AM 34.7°F1.5°C 31.5°F-0.3°C 88% 6.0 mph SW9.7 kmh SW 20.0 mph32.2 kmh 29.71 in1006.1 mb 0.00 in0.0 mm 0.00 in0.0 mm 0.00 in0.0 mm
06:36 AM 34.7°F1.5°C 31.5°F-0.3°C 88% 4.9 mph NW7.9 kmh NW 11.0 mph17.7 kmh 29.71 in1006.1 mb 0.00 in0.0 mm 0.00 in0.0 mm 0.00 in0.0 mm
06:31 AM 34.9°F1.6°C 31.6°F-0.2°C 88% 4.9 mph NW7.9 kmh NW 11.0 mph17.7 kmh 29.71 in1006.1 mb 0.00 in0.0 mm 0.00 in0.0 mm 0.00 in0.0 mm
06:26 AM 34.9°F1.6°C 31.6°F-0.2°C 88% 4.9 mph WNW7.9 kmh WNW 8.9 mph14.3 kmh 29.70 in1005.8 mb 0.00 in0.0 mm 0.00 in0.0 mm 0.00 in0.0 mm
06:21 AM 35.1°F1.7°C 31.8°F-0.1°C 88% 4.9 mph WNW7.9 kmh WNW 10.1 mph16.3 kmh 29.70 in1005.8 mb 0.00 in0.0 mm 0.00 in0.0 mm 0.00 in0.0 mm
06:16 AM 35.1°F1.7°C 31.8°F-0.1°C 88% 4.9 mph WSW7.9 kmh WSW 12.1 mph19.5 kmh 29.70 in1005.8 mb 0.00 in0.0 mm 0.00 in0.0 mm 0.00 in0.0 mm
06:11 AM 35.1°F1.7°C 31.8°F-0.1°C 88% 6.0 mph WNW9.7 kmh WNW 11.0 mph17.7 kmh 29.70 in1005.8 mb 0.00 in0.0 mm 0.00 in0.0 mm 0.00 in0.0 mm
06:06 AM 35.2°F1.8°C 32.0°F0.0°C 88% 6.0 mph W9.7 kmh W 16.1 mph25.9 kmh 29.70 in1005.8 mb 0.00 in0.0 mm 0.00 in0.0 mm 0.00 in0.0 mm
06:01 AM 35.1°F1.7°C 31.8°F-0.1°C 88% 6.9 mph WNW11.1 kmh WNW 15.0 mph24.1 kmh 29.69 in1005.4 mb 0.00 in0.0 mm 0.00 in0.0 mm 0.00 in0.0 mm
05:56 AM 35.1°F1.7°C 31.8°F-0.1°C 88% 6.9 mph W11.1 kmh W 19.0 mph30.6 kmh 29.69 in1005.4 mb 0.00 in0.0 mm 0.00 in0.0 mm 0.00 in0.0 mm
05:51 AM 35.1°F1.7°C 31.8°F-0.1°C 88% 6.9 mph W11.1 kmh W 15.0 mph24.1 kmh 29.69 in1005.4 mb 0.00 in0.0 mm 0.00 in0.0 mm 0.00 in0.0 mm
05:46 AM 35.2°F1.8°C 32.0°F0.0°C 88% 6.9 mph WNW11.1 kmh WNW 16.1 mph25.9 kmh 29.68 in1005.1 mb 0.00 in0.0 mm 0.00 in0.0 mm 0.00 in0.0 mm
05:41 AM 35.2°F1.8°C 32.0°F0.0°C 88% 6.0 mph NW9.7 kmh NW 17.0 mph27.4 kmh 29.68 in1005.1 mb 0.00 in0.0 mm 0.00 in0.0 mm 0.00 in0.0 mm
05:36 AM 35.2°F1.8°C 32.0°F0.0°C 88% 6.0 mph W9.7 kmh W 12.1 mph19.5 kmh 29.68 in1005.1 mb 0.00 in0.0 mm 0.00 in0.0 mm 0.00 in0.0 mm
05:31 AM 35.2°F1.8°C 32.0°F0.0°C 88% 6.9 mph WSW11.1 kmh WSW 15.0 mph24.1 kmh 29.68 in1005.1 mb 0.00 in0.0 mm 0.00 in0.0 mm 0.00 in0.0 mm
05:26 AM 35.2°F1.8°C 32.0°F0.0°C 88% 8.1 mph W13.0 kmh W 16.1 mph25.9 kmh 29.68 in1005.1 mb 0.00 in0.0 mm 0.00 in0.0 mm 0.00 in0.0 mm
05:21 AM 35.2°F1.8°C 32.4°F0.2°C 89% 6.9 mph NW11.1 kmh NW 18.0 mph29.0 kmh 29.67 in1004.7 mb 0.00 in0.0 mm 0.00 in0.0 mm 0.00 in0.0 mm
05:16 AM 35.1°F1.7°C 32.2°F0.1°C 89% 6.0 mph W9.7 kmh W 16.1 mph25.9 kmh 29.67 in1004.7 mb 0.00 in0.0 mm 0.00 in0.0 mm 0.00 in0.0 mm
05:11 AM 35.1°F1.7°C 32.4°F0.2°C 90% 6.0 mph WNW9.7 kmh WNW 14.1 mph22.7 kmh 29.67 in1004.7 mb 0.00 in0.0 mm 0.00 in0.0 mm 0.00 in0.0 mm
05:06 AM 35.1°F1.7°C 32.4°F0.2°C 90% 4.9 mph N7.9 kmh N 13.0 mph20.9 kmh 29.67 in1004.7 mb 0.00 in0.0 mm 0.00 in0.0 mm 0.00 in0.0 mm
05:01 AM 35.1°F1.7°C 32.4°F0.2°C 90% 6.0 mph NW9.7 kmh NW 15.0 mph24.1 kmh 29.66 in1004.4 mb 0.00 in0.0 mm 0.00 in0.0 mm 0.00 in0.0 mm
04:56 AM 34.9°F1.6°C 32.5°F0.3°C 91% 6.9 mph W11.1 kmh W 17.0 mph27.4 kmh 29.66 in1004.4 mb 0.00 in0.0 mm 0.00 in0.0 mm 0.00 in0.0 mm
04:51 AM 34.9°F1.6°C 32.5°F0.3°C 91% 6.9 mph W11.1 kmh W 17.0 mph27.4 kmh 29.66 in1004.4 mb 0.00 in0.0 mm 0.00 in0.0 mm 0.00 in0.0 mm
04:46 AM 34.9°F1.6°C 32.5°F0.3°C 91% 6.9 mph W11.1 kmh W 16.1 mph25.9 kmh 29.66 in1004.4 mb 0.00 in0.0 mm 0.00 in0.0 mm 0.00 in0.0 mm
04:41 AM 34.9°F1.6°C 32.5°F0.3°C 91% 6.9 mph W11.1 kmh W 17.0 mph27.4 kmh 29.65 in1004.1 mb 0.00 in0.0 mm 0.00 in0.0 mm 0.00 in0.0 mm
04:36 AM 34.9°F1.6°C 32.5°F0.3°C 91% 6.9 mph W11.1 kmh W 15.0 mph24.1 kmh 29.65 in1004.1 mb 0.00 in0.0 mm 0.00 in0.0 mm 0.00 in0.0 mm
04:31 AM 34.9°F1.6°C 32.5°F0.3°C 91% 6.9 mph W11.1 kmh W 14.1 mph22.7 kmh 29.65 in1004.1 mb 0.00 in0.0 mm 0.00 in0.0 mm 0.00 in0.0 mm
04:26 AM 34.9°F1.6°C 32.5°F0.3°C 91% 6.0 mph W9.7 kmh W 15.0 mph24.1 kmh 29.65 in1004.1 mb 0.00 in0.0 mm 0.00 in0.0 mm 0.00 in0.0 mm
04:21 AM 35.1°F1.7°C 32.7°F0.4°C 91% 6.0 mph WSW9.7 kmh WSW 15.0 mph24.1 kmh 29.65 in1004.1 mb 0.00 in0.0 mm 0.00 in0.0 mm 0.00 in0.0 mm
04:16 AM 35.1°F1.7°C 32.7°F0.4°C 91% 6.9 mph WNW11.1 kmh WNW 14.1 mph22.7 kmh 29.65 in1004.1 mb 0.00 in0.0 mm 0.00 in0.0 mm 0.00 in0.0 mm
04:11 AM 35.1°F1.7°C 32.7°F0.4°C 91% 8.1 mph NW13.0 kmh NW 19.0 mph30.6 kmh 29.65 in1004.1 mb 0.00 in0.0 mm 0.00 in0.0 mm 0.00 in0.0 mm
04:06 AM 35.2°F1.8°C 32.5°F0.3°C 90% 6.9 mph NW11.1 kmh NW 21.0 mph33.8 kmh 29.65 in1004.1 mb 0.00 in0.0 mm 0.00 in0.0 mm 0.00 in0.0 mm
04:01 AM 35.2°F1.8°C 32.9°F0.5°C 91% 6.9 mph NW11.1 kmh NW 14.1 mph22.7 kmh 29.64 in1003.7 mb 0.00 in0.0 mm 0.00 in0.0 mm 0.00 in0.0 mm
03:56 AM 35.2°F1.8°C 32.9°F0.5°C 91% 8.1 mph W13.0 kmh W 19.0 mph30.6 kmh 29.64 in1003.7 mb 0.00 in0.0 mm 0.00 in0.0 mm 0.00 in0.0 mm
03:51 AM 35.1°F1.7°C 32.7°F0.4°C 91% 8.1 mph WSW13.0 kmh WSW 14.1 mph22.7 kmh 29.64 in1003.7 mb 0.00 in0.0 mm 0.00 in0.0 mm 0.00 in0.0 mm
03:46 AM 35.1°F1.7°C 32.7°F0.4°C 91% 6.9 mph W11.1 kmh W 16.1 mph25.9 kmh 29.63 in1003.4 mb 0.00 in0.0 mm 0.00 in0.0 mm 0.00 in0.0 mm
03:41 AM 35.1°F1.7°C 32.7°F0.4°C 91% 6.9 mph W11.1 kmh W 15.0 mph24.1 kmh 29.63 in1003.4 mb 0.00 in0.0 mm 0.00 in0.0 mm 0.00 in0.0 mm
03:36 AM 35.2°F1.8°C 32.9°F0.5°C 91% 8.1 mph WNW13.0 kmh WNW 16.1 mph25.9 kmh 29.63 in1003.4 mb 0.00 in0.0 mm 0.00 in0.0 mm 0.00 in0.0 mm
03:31 AM 35.2°F1.8°C 32.9°F0.5°C 91% 8.9 mph W14.3 kmh W 19.9 mph32.0 kmh 29.62 in1003.0 mb 0.00 in0.0 mm 0.00 in0.0 mm 0.00 in0.0 mm
03:26 AM 35.2°F1.8°C 32.9°F0.5°C 91% 8.9 mph NW14.3 kmh NW 19.9 mph32.0 kmh 29.62 in1003.0 mb 0.00 in0.0 mm 0.00 in0.0 mm 0.00 in0.0 mm
03:21 AM 35.2°F1.8°C 32.9°F0.5°C 91% 8.9 mph NW14.3 kmh NW 15.0 mph24.1 kmh 29.62 in1003.0 mb 0.00 in0.0 mm 0.00 in0.0 mm 0.00 in0.0 mm
03:16 AM 35.2°F1.8°C 32.9°F0.5°C 91% 6.9 mph W11.1 kmh W 17.9 mph28.8 kmh 29.62 in1003.0 mb 0.00 in0.0 mm 0.00 in0.0 mm 0.00 in0.0 mm
03:11 AM 35.1°F1.7°C 32.7°F0.4°C 91% 6.9 mph W11.1 kmh W 20.0 mph32.2 kmh 29.62 in1003.0 mb 0.00 in0.0 mm 0.00 in0.0 mm 0.00 in0.0 mm
03:06 AM 35.1°F1.7°C 32.9°F0.5°C 92% 8.1 mph W13.0 kmh W 17.9 mph28.8 kmh 29.61 in1002.7 mb 0.00 in0.0 mm 0.00 in0.0 mm 0.00 in0.0 mm
03:01 AM 35.1°F1.7°C 32.9°F0.5°C 92% 6.9 mph W11.1 kmh W 17.9 mph28.8 kmh 29.61 in1002.7 mb 0.00 in0.0 mm 0.00 in0.0 mm 0.00 in0.0 mm
02:56 AM 35.1°F1.7°C 32.7°F0.4°C 91% 8.1 mph W13.0 kmh W 17.9 mph28.8 kmh 29.61 in1002.7 mb 0.00 in0.0 mm 0.00 in0.0 mm 0.00 in0.0 mm
02:51 AM 35.2°F1.8°C 32.9°F0.5°C 91% 10.1 mph NW16.3 kmh NW 21.0 mph33.8 kmh 29.61 in1002.7 mb 0.00 in0.0 mm 0.00 in0.0 mm 0.00 in0.0 mm
02:46 AM 35.2°F1.8°C 32.9°F0.5°C 91% 10.1 mph W16.3 kmh W 19.9 mph32.0 kmh 29.60 in1002.4 mb 0.00 in0.0 mm 0.00 in0.0 mm 0.00 in0.0 mm
02:41 AM 35.2°F1.8°C 32.9°F0.5°C 91% 8.9 mph W14.3 kmh W 21.0 mph33.8 kmh 29.60 in1002.4 mb 0.00 in0.0 mm 0.00 in0.0 mm 0.00 in0.0 mm
02:36 AM 35.2°F1.8°C 32.9°F0.5°C 91% 6.9 mph WSW11.1 kmh WSW 15.0 mph24.1 kmh 29.59 in1002.0 mb 0.00 in0.0 mm 0.00 in0.0 mm 0.00 in0.0 mm
02:31 AM 35.2°F1.8°C 32.5°F0.3°C 90% 8.1 mph W13.0 kmh W 16.1 mph25.9 kmh 29.59 in1002.0 mb 0.00 in0.0 mm 0.00 in0.0 mm 0.00 in0.0 mm
02:26 AM 35.2°F1.8°C 32.5°F0.3°C 90% 8.1 mph W13.0 kmh W 19.0 mph30.6 kmh 29.59 in1002.0 mb 0.00 in0.0 mm 0.00 in0.0 mm 0.00 in0.0 mm
02:21 AM 35.2°F1.8°C 32.5°F0.3°C 90% 8.1 mph W13.0 kmh W 16.1 mph25.9 kmh 29.59 in1002.0 mb 0.00 in0.0 mm 0.00 in0.0 mm 0.00 in0.0 mm
02:16 AM 35.2°F1.8°C 32.5°F0.3°C 90% 8.9 mph WNW14.3 kmh WNW 19.0 mph30.6 kmh 29.59 in1002.0 mb 0.00 in0.0 mm 0.00 in0.0 mm 0.00 in0.0 mm
02:11 AM 35.2°F1.8°C 32.5°F0.3°C 90% 8.1 mph W13.0 kmh W 17.0 mph27.4 kmh 29.58 in1001.7 mb 0.00 in0.0 mm 0.00 in0.0 mm 0.00 in0.0 mm
02:06 AM 35.2°F1.8°C 32.9°F0.5°C 91% 6.9 mph NW11.1 kmh NW 16.1 mph25.9 kmh 29.58 in1001.7 mb 0.00 in0.0 mm 0.00 in0.0 mm 0.00 in0.0 mm
02:01 AM 35.2°F1.8°C 32.5°F0.3°C 90% 6.9 mph NW11.1 kmh NW 18.0 mph29.0 kmh 29.58 in1001.7 mb 0.00 in0.0 mm 0.00 in0.0 mm 0.00 in0.0 mm
01:56 AM 35.2°F1.8°C 32.5°F0.3°C 90% 8.1 mph WSW13.0 kmh WSW 15.0 mph24.1 kmh 29.58 in1001.7 mb 0.00 in0.0 mm 0.00 in0.0 mm 0.00 in0.0 mm
01:51 AM 35.2°F1.8°C 32.5°F0.3°C 90% 8.1 mph NW13.0 kmh NW 17.0 mph27.4 kmh 29.57 in1001.4 mb 0.00 in0.0 mm 0.00 in0.0 mm 0.00 in0.0 mm
01:46 AM 35.2°F1.8°C 32.9°F0.5°C 91% 6.9 mph NW11.1 kmh NW 16.1 mph25.9 kmh 29.57 in1001.4 mb 0.00 in0.0 mm 0.00 in0.0 mm 0.00 in0.0 mm
01:41 AM 35.1°F1.7°C 32.7°F0.4°C 91% 6.9 mph NW11.1 kmh NW 12.1 mph19.5 kmh 29.57 in1001.4 mb 0.00 in0.0 mm 0.00 in0.0 mm 0.00 in0.0 mm
01:36 AM 35.1°F1.7°C 32.9°F0.5°C 92% 6.0 mph W9.7 kmh W 16.1 mph25.9 kmh 29.57 in1001.4 mb 0.00 in0.0 mm 0.00 in0.0 mm 0.00 in0.0 mm
01:31 AM 35.1°F1.7°C 32.9°F0.5°C 92% 6.9 mph W11.1 kmh W 17.0 mph27.4 kmh 29.57 in1001.4 mb 0.00 in0.0 mm 0.00 in0.0 mm 0.00 in0.0 mm
01:26 AM 35.1°F1.7°C 32.9°F0.5°C 92% 6.9 mph NNW11.1 kmh NNW 17.0 mph27.4 kmh 29.57 in1001.4 mb 0.00 in0.0 mm 0.00 in0.0 mm 0.00 in0.0 mm
01:21 AM 34.9°F1.6°C 32.7°F0.4°C 92% 6.9 mph W11.1 kmh W 17.0 mph27.4 kmh 29.57 in1001.4 mb 0.00 in0.0 mm 0.00 in0.0 mm 0.00 in0.0 mm
01:16 AM 35.1°F1.7°C 32.9°F0.5°C 92% 6.9 mph WNW11.1 kmh WNW 15.0 mph24.1 kmh 29.56 in1001.0 mb 0.00 in0.0 mm 0.00 in0.0 mm 0.00 in0.0 mm
01:11 AM 34.9°F1.6°C 32.7°F0.4°C 92% 6.9 mph W11.1 kmh W 13.0 mph20.9 kmh 29.56 in1001.0 mb 0.00 in0.0 mm 0.00 in0.0 mm 0.00 in0.0 mm
01:06 AM 34.7°F1.5°C 32.9°F0.5°C 93% 6.9 mph NW11.1 kmh NW 15.0 mph24.1 kmh 29.56 in1001.0 mb 0.00 in0.0 mm 0.00 in0.0 mm 0.00 in0.0 mm
01:01 AM 34.7°F1.5°C 32.9°F0.5°C 93% 6.9 mph NW11.1 kmh NW 13.0 mph20.9 kmh 29.56 in1001.0 mb 0.00 in0.0 mm 0.00 in0.0 mm 0.00 in0.0 mm
12:56 AM 34.5°F1.4°C 32.7°F0.4°C 93% 6.9 mph NW11.1 kmh NW 16.1 mph25.9 kmh 29.55 in1000.7 mb 0.00 in0.0 mm 0.00 in0.0 mm 0.00 in0.0 mm
12:51 AM 34.5°F1.4°C 32.7°F0.4°C 93% 6.9 mph WSW11.1 kmh WSW 17.0 mph27.4 kmh 29.55 in1000.7 mb 0.00 in0.0 mm 0.00 in0.0 mm 0.00 in0.0 mm
12:46 AM 34.5°F1.4°C 32.9°F0.5°C 94% 6.9 mph W11.1 kmh W 16.1 mph25.9 kmh 29.55 in1000.7 mb 0.00 in0.0 mm 0.00 in0.0 mm 0.00 in0.0 mm
12:41 AM 34.7°F1.5°C 33.1°F0.6°C 94% 8.1 mph WSW13.0 kmh WSW 13.0 mph20.9 kmh 29.55 in1000.7 mb 0.00 in0.0 mm 0.00 in0.0 mm 0.00 in0.0 mm
12:36 AM 34.7°F1.5°C 32.9°F0.5°C 93% 8.1 mph W13.0 kmh W 14.1 mph22.7 kmh 29.55 in1000.7 mb 0.00 in0.0 mm 0.00 in0.0 mm 0.00 in0.0 mm
12:31 AM 34.9°F1.6°C 33.1°F0.6°C 93% 6.9 mph NW11.1 kmh NW 13.0 mph20.9 kmh 29.54 in1000.3 mb 0.00 in0.0 mm 0.00 in0.0 mm 0.00 in0.0 mm
12:26 AM 34.9°F1.6°C 33.1°F0.6°C 93% 6.9 mph WNW11.1 kmh WNW 16.0 mph25.7 kmh 29.54 in1000.3 mb 0.00 in0.0 mm 0.00 in0.0 mm 0.00 in0.0 mm
12:21 AM 34.9°F1.6°C 33.1°F0.6°C 93% 8.1 mph W13.0 kmh W 15.0 mph24.1 kmh 29.54 in1000.3 mb 0.00 in0.0 mm 0.00 in0.0 mm 0.00 in0.0 mm
12:16 AM 35.1°F1.7°C 33.3°F0.7°C 93% 8.9 mph W14.3 kmh W 16.1 mph25.9 kmh 29.54 in1000.3 mb 0.00 in0.0 mm 0.00 in0.0 mm 0.00 in0.0 mm
12:11 AM 35.1°F1.7°C 33.3°F0.7°C 93% 8.9 mph WNW14.3 kmh WNW 17.0 mph27.4 kmh 29.54 in1000.3 mb 0.00 in0.0 mm 0.00 in0.0 mm 0.00 in0.0 mm
12:06 AM 35.1°F1.7°C 33.4°F0.8°C 94% 8.1 mph WSW13.0 kmh WSW 14.1 mph22.7 kmh 29.54 in1000.3 mb 0.00 in0.0 mm 0.00 in0.0 mm 0.00 in0.0 mm
12:01 AM 34.9°F1.6°C 33.3°F0.7°C 94% 6.9 mph WSW11.1 kmh WSW 16.1 mph25.9 kmh 29.54 in1000.3 mb 0.00 in0.0 mm 0.00 in0.0 mm 0.00 in0.0 mm